createdAt,value
2022-11-07T14:03:44.621Z,100768.14
2022-11-07T14:05:14.886Z,100770.02
2022-11-07T14:05:57.314Z,100777.75
2022-11-07T14:07:02.063Z,100770.58
2022-11-07T14:08:07.241Z,100766.81
2022-11-07T14:09:11.591Z,100769.39
2022-11-07T14:10:16.651Z,100765.87
2022-11-07T14:11:21.523Z,100764.01
2022-11-07T14:12:30.032Z,100770.40
2022-11-07T14:13:40.924Z,100764.95
2022-11-07T14:14:41.440Z,100772.98
2022-11-07T14:15:49.853Z,100762.39
2022-11-07T14:16:59.092Z,100763.44
2022-11-07T14:19:07.370Z,100763.66
2022-11-07T14:20:15.989Z,100757.88
2022-11-07T14:21:20.957Z,100763.59
2022-11-07T14:22:28.211Z,100762.88
2022-11-07T14:23:36.605Z,100764.11
2022-11-07T14:24:41.691Z,100767.09
2022-11-07T14:25:45.108Z,100766.61
2022-11-07T14:26:49.657Z,100766.83
2022-11-07T14:27:53.162Z,100767.02
2022-11-07T14:28:59.316Z,100764.67
2022-11-07T14:30:04.898Z,100772.23
2022-11-07T14:31:27.698Z,100768.88
2022-11-07T14:32:32.772Z,100773.25
2022-11-07T14:33:36.485Z,100772.55
2022-11-07T14:34:40.723Z,100769.19
2022-11-07T14:35:46.316Z,100768.96
2022-11-07T14:36:50.123Z,100766.31
2022-11-07T14:37:55.520Z,100766.69
2022-11-07T14:39:04.779Z,100763.97
2022-11-07T14:40:07.545Z,100763.03
2022-11-07T14:41:13.857Z,100770.91
2022-11-07T14:42:23.432Z,100759.79
2022-11-07T14:43:26.520Z,100762.73
2022-11-07T14:44:56.357Z,100764.37
2022-11-07T14:46:11.490Z,100765.12
2022-11-07T14:46:51.752Z,100770.41
2022-11-07T14:47:55.475Z,100771.98
2022-11-07T14:49:01.794Z,100766.09
2022-11-07T14:50:06.453Z,100771.98
2022-11-07T14:51:13.508Z,100767.02
2022-11-07T14:52:21.536Z,100767.25
2022-11-07T14:53:44.856Z,100765.16
2022-11-07T14:54:49.824Z,100765.45
2022-11-07T14:55:54.468Z,100769.19
2022-11-07T14:56:59.130Z,100762.80
2022-11-07T14:58:03.784Z,100765.23
2022-11-07T14:59:12.609Z,100766.69
2022-11-07T15:00:19.506Z,100756.09
2022-11-07T15:01:27.387Z,100760.08
2022-11-07T15:02:35.296Z,100774.70
2022-11-07T15:03:41.040Z,100761.95
2022-11-07T15:04:45.774Z,100761.02
2022-11-07T15:05:53.217Z,100768.33
2022-11-07T15:07:01.395Z,100763.03
2022-11-07T15:08:04.574Z,100770.75
2022-11-07T15:09:10.694Z,100763.25
2022-11-07T15:10:21.980Z,100765.04
2022-11-07T15:12:39.591Z,100759.37
2022-11-07T15:13:43.519Z,100768.97
2022-11-07T15:14:47.957Z,100766.23
2022-11-07T15:16:08.776Z,100761.17
2022-11-07T15:17:14.290Z,100765.38
2022-11-07T15:18:21.555Z,100754.02
2022-11-07T15:19:26.246Z,100766.47
2022-11-07T15:20:34.312Z,100763.11
2022-11-07T15:21:38.591Z,100759.15
2022-11-07T15:22:43.370Z,100764.89
2022-11-07T15:23:47.634Z,100765.90
2022-11-07T15:24:50.373Z,100771.59
2022-11-07T15:25:56.186Z,100762.72
2022-11-07T15:27:01.410Z,100778.06
2022-11-07T15:28:24.633Z,100779.14
2022-11-07T15:29:31.155Z,100772.83
2022-11-07T15:31:39.339Z,100773.47
2022-11-07T15:32:43.143Z,100764.97
2022-11-07T15:33:46.334Z,100780.48
2022-11-07T15:35:07.773Z,100770.73
2022-11-07T15:35:58.267Z,100776.89
2022-11-07T15:37:01.979Z,100772.27
2022-11-07T15:38:05.264Z,100782.50
2022-11-07T15:39:10.451Z,100781.80
2022-11-07T15:40:16.511Z,100785.15
2022-11-07T15:41:20.060Z,100778.36
2022-11-07T15:42:23.359Z,100779.62
2022-11-07T15:43:28.012Z,100783.36
2022-11-07T15:44:31.422Z,100785.70
2022-11-07T15:45:34.766Z,100783.58
2022-11-07T15:46:41.150Z,100783.58
2022-11-07T15:47:44.541Z,100783.91
2022-11-07T15:48:47.939Z,100786.56
2022-11-07T15:49:52.341Z,100792.79
2022-11-07T15:50:56.422Z,100795.36
2022-11-07T15:51:59.289Z,100791.86
2022-11-07T15:53:01.540Z,100794.58
2022-11-07T15:54:06.203Z,100792.53
2022-11-07T15:55:12.325Z,100796.03
2022-11-07T15:56:16.964Z,100790.81
2022-11-07T15:57:20.585Z,100788.09
2022-11-07T15:58:25.239Z,100791.59
2022-11-07T15:59:31.565Z,100793.50
2022-11-07T16:00:33.816Z,100790.00
2022-11-07T16:01:37.635Z,100788.66
2022-11-07T16:02:41.019Z,100792.08
2022-11-07T16:03:44.633Z,100792.71
2022-11-07T16:04:47.412Z,100791.86
2022-11-07T16:05:55.819Z,100792.01
2022-11-07T16:06:59.116Z,100791.53
2022-11-07T16:08:03.326Z,100795.11
2022-11-07T16:09:09.166Z,100792.39
2022-11-07T16:10:26.447Z,100796.37
2022-11-07T16:11:31.349Z,100792.53
2022-11-07T16:12:34.619Z,100789.87
2022-11-07T16:13:39.778Z,100790.50
2022-11-07T16:14:44.932Z,100787.65
2022-11-07T16:15:50.348Z,100782.91
2022-11-07T16:16:53.746Z,100789.28
2022-11-07T16:17:56.934Z,100785.85
2022-11-07T16:19:01.194Z,100792.72
2022-11-07T16:20:05.454Z,100787.95
2022-11-07T16:21:07.764Z,100792.16
2022-11-07T16:22:11.375Z,100793.80
2022-11-07T16:23:14.301Z,100793.31
2022-11-07T16:24:18.986Z,100786.63
2022-11-07T16:25:23.993Z,100796.11
2022-11-07T16:26:29.047Z,100789.72
2022-11-07T16:27:32.594Z,100789.20
2022-11-07T16:28:36.283Z,100794.95
2022-11-07T16:29:42.925Z,100786.78
2022-11-07T16:30:46.097Z,100787.72
2022-11-07T16:31:49.429Z,100783.05
2022-11-07T16:32:52.794Z,100789.51
2022-11-07T16:33:56.205Z,100782.27
2022-11-07T16:34:58.770Z,100786.08
2022-11-07T16:36:03.530Z,100783.77
2022-11-07T16:37:07.033Z,100793.24
2022-11-07T16:38:15.902Z,100787.88
2022-11-07T16:39:22.503Z,100786.86
2022-11-07T16:40:28.816Z,100790.37
2022-11-07T16:41:34.257Z,100784.91
2022-11-07T16:42:36.990Z,100784.91
2022-11-07T16:43:39.549Z,100792.23
2022-11-07T16:44:43.310Z,100796.52
2022-11-07T16:45:47.398Z,100794.50
2022-11-07T16:46:51.207Z,100794.66
2022-11-07T16:47:54.409Z,100794.17
2022-11-07T16:48:58.424Z,100785.78
2022-11-07T16:50:02.986Z,100800.41
2022-11-07T16:51:08.051Z,100795.97
2022-11-07T16:52:15.530Z,100791.78
2022-11-07T16:53:19.970Z,100794.17
2022-11-07T16:54:23.163Z,100788.95
2022-11-07T16:55:26.495Z,100787.88
2022-11-07T16:56:31.629Z,100789.44
2022-11-07T16:57:37.576Z,100789.44
2022-11-07T16:58:41.355Z,100790.22
2022-11-07T16:59:44.755Z,100800.41
2022-11-07T17:00:52.166Z,100789.73
2022-11-07T17:01:55.440Z,100789.59
2022-11-07T17:02:59.099Z,100783.66
2022-11-07T17:04:04.252Z,100787.27
2022-11-07T17:05:07.746Z,100782.65
2022-11-07T17:06:13.735Z,100774.03
2022-11-07T17:07:16.820Z,100778.62
2022-11-07T17:08:22.310Z,100779.22
2022-11-07T17:09:27.601Z,100781.12
2022-11-07T17:10:30.888Z,100781.05
2022-11-07T17:11:34.286Z,100771.91
2022-11-07T17:12:37.480Z,100775.67
2022-11-07T17:13:40.972Z,100776.76
2022-11-07T17:14:43.776Z,100773.03
2022-11-07T17:15:46.635Z,100773.78
2022-11-07T17:16:50.244Z,100776.27
2022-11-07T17:17:58.984Z,100774.41
2022-11-07T17:18:58.651Z,100782.28
2022-11-07T17:20:01.793Z,100782.28
2022-11-07T17:21:04.359Z,100777.13
2022-11-07T17:22:08.398Z,100777.13
2022-11-07T17:23:11.683Z,100774.19
2022-11-07T17:24:14.978Z,100782.20
2022-11-07T17:25:18.795Z,100775.41
2022-11-07T17:26:23.775Z,100776.13
2022-11-07T17:27:27.383Z,100778.53
2022-11-07T17:28:30.566Z,100770.76
2022-11-07T17:29:34.079Z,100766.58
2022-11-07T17:30:37.904Z,100771.37
2022-11-07T17:31:42.650Z,100768.97
2022-11-07T17:32:46.162Z,100775.58
2022-11-07T17:33:49.878Z,100769.17
2022-11-07T17:35:18.157Z,100770.52
2022-11-07T17:36:01.367Z,100769.73
2022-11-07T17:37:04.777Z,100768.02
2022-11-07T17:38:11.547Z,100774.31
2022-11-07T17:39:18.033Z,100761.87
2022-11-07T17:40:30.123Z,100768.59
2022-11-07T17:41:33.629Z,100769.42
2022-11-07T17:42:40.522Z,100766.92
2022-11-07T17:43:44.350Z,100767.64
2022-11-07T17:44:55.114Z,100769.83
2022-11-07T17:45:58.577Z,100770.58
2022-11-07T17:47:04.708Z,100761.59
2022-11-07T17:48:09.173Z,100775.06
2022-11-07T17:49:17.494Z,100767.39
2022-11-07T17:50:22.461Z,100768.32
2022-11-07T17:51:27.211Z,100771.11
2022-11-07T17:52:32.263Z,100772.03
2022-11-07T17:53:35.685Z,100768.18
2022-11-07T17:54:41.070Z,100762.10
2022-11-07T17:55:43.320Z,100763.89
2022-11-07T17:56:46.721Z,100767.81
2022-11-07T17:57:51.991Z,100760.91
2022-11-07T17:58:55.229Z,100762.24
2022-11-07T17:59:57.561Z,100760.81
2022-11-07T18:01:00.940Z,100755.63
2022-11-07T18:02:05.448Z,100752.02
2022-11-07T18:03:08.884Z,100754.66
2022-11-07T18:04:14.286Z,100751.47
2022-11-07T18:05:18.846Z,100752.19
2022-11-07T18:06:23.974Z,100751.62
2022-11-07T18:07:28.504Z,100750.21
2022-11-07T18:08:51.165Z,100751.14
2022-11-07T18:09:38.484Z,100750.90
2022-11-07T18:10:43.033Z,100754.78
2022-11-07T18:11:46.547Z,100745.00
2022-11-07T18:12:49.730Z,100744.83
2022-11-07T18:13:58.570Z,100747.50
2022-11-07T18:15:02.181Z,100748.98
2022-11-07T18:16:10.315Z,100745.27
2022-11-07T18:17:12.639Z,100758.42
2022-11-07T18:18:16.044Z,100751.08
2022-11-07T18:19:20.066Z,100749.02
2022-11-07T18:20:24.198Z,100742.42
2022-11-07T18:21:28.854Z,100740.70
2022-11-07T18:22:32.356Z,100741.84
2022-11-07T18:23:35.328Z,100745.98
2022-11-07T18:24:40.726Z,100750.14
2022-11-07T18:25:45.097Z,100747.56
2022-11-07T18:26:49.918Z,100740.12
2022-11-07T18:27:52.275Z,100739.98
2022-11-07T18:28:54.953Z,100737.34
2022-11-07T18:29:58.252Z,100750.41
2022-11-07T18:31:05.817Z,100738.51
2022-11-07T18:32:08.281Z,100742.48
2022-11-07T18:33:11.375Z,100742.48
2022-11-07T18:34:15.605Z,100746.77
2022-11-07T18:35:19.221Z,100742.56
2022-11-07T18:36:22.934Z,100733.50
2022-11-07T18:37:26.858Z,100738.06
2022-11-07T18:38:30.361Z,100741.08
2022-11-07T18:39:35.746Z,100753.34
2022-11-07T18:40:39.346Z,100748.29
2022-11-07T18:41:43.688Z,100737.41
2022-11-07T18:42:49.089Z,100749.08
2022-11-07T18:43:53.841Z,100735.94
2022-11-07T18:44:57.554Z,100744.86
2022-11-07T18:46:02.319Z,100746.70
2022-11-07T18:47:05.702Z,100754.77
2022-11-07T18:48:09.000Z,100749.06
2022-11-07T18:49:14.534Z,100754.14
2022-11-07T18:50:16.844Z,100754.34
2022-11-07T18:51:22.138Z,100756.13
2022-11-07T18:52:26.258Z,100756.45
2022-11-07T18:53:33.046Z,100768.05
2022-11-07T18:54:37.377Z,100762.66
2022-11-07T18:55:42.480Z,100760.13
2022-11-07T18:56:45.927Z,100757.38
2022-11-07T18:57:49.223Z,100765.13
2022-11-07T18:58:52.729Z,100763.16
2022-11-07T18:59:57.163Z,100761.91
2022-11-07T19:01:04.059Z,100757.25
2022-11-07T19:02:09.037Z,100769.65
2022-11-07T19:03:13.369Z,100770.51
2022-11-07T19:04:15.788Z,100766.09
2022-11-07T19:05:21.036Z,100767.93
2022-11-07T19:06:26.606Z,100775.00
2022-11-07T19:07:29.229Z,100770.22
2022-11-07T19:08:37.805Z,100773.84
2022-11-07T19:09:43.058Z,100781.70
2022-11-07T19:10:46.522Z,100776.42
2022-11-07T19:11:51.009Z,100777.77
2022-11-07T19:12:54.994Z,100776.05
2022-11-07T19:13:59.962Z,100775.25
2022-11-07T19:15:02.751Z,100774.80
2022-11-07T19:16:05.717Z,100775.92
2022-11-07T19:17:09.027Z,100780.59
2022-11-07T19:18:13.749Z,100783.03
2022-11-07T19:19:17.173Z,100783.23
2022-11-07T19:20:21.031Z,100779.73
2022-11-07T19:21:24.505Z,100780.52
2022-11-07T19:22:29.019Z,100780.52
2022-11-07T19:23:36.298Z,100793.13
2022-11-07T19:24:40.997Z,100782.80
2022-11-07T19:25:44.364Z,100780.28
2022-11-07T19:26:49.510Z,100782.13
2022-11-07T19:27:53.045Z,100784.70
2022-11-07T19:28:57.700Z,100778.63
2022-11-07T19:30:01.371Z,100781.33
2022-11-07T19:31:05.975Z,100771.50
2022-11-07T19:32:10.000Z,100777.83
2022-11-07T19:33:12.253Z,100787.14
2022-11-07T19:34:19.823Z,100793.73
2022-11-07T19:35:24.513Z,100787.78
2022-11-07T19:36:27.773Z,100786.61
2022-11-07T19:37:30.055Z,100794.14
2022-11-07T19:38:33.957Z,100795.39
2022-11-07T19:39:36.629Z,100791.69
2022-11-07T19:40:41.999Z,100790.84
2022-11-07T19:41:45.387Z,100790.59
2022-11-07T19:42:48.743Z,100794.14
2022-11-07T19:43:51.889Z,100790.59
2022-11-07T19:44:56.668Z,100788.20
2022-11-07T19:46:00.675Z,100790.23
2022-11-07T19:47:03.551Z,100801.53
2022-11-07T19:48:08.822Z,100792.81
2022-11-07T19:49:12.138Z,100788.33
2022-11-07T19:50:16.155Z,100790.11
2022-11-07T19:51:21.966Z,100795.45
2022-11-07T19:52:25.566Z,100801.59
2022-11-07T19:53:28.874Z,100792.62
2022-11-07T19:54:31.115Z,100796.05
2022-11-07T19:55:35.456Z,100799.42
2022-11-07T19:56:42.105Z,100793.48
2022-11-07T19:57:45.434Z,100795.51
2022-11-07T19:58:49.114Z,100798.33
2022-11-07T19:59:52.829Z,100792.06
2022-11-07T20:00:58.768Z,100792.10
2022-11-07T20:02:31.240Z,100795.59
2022-11-07T20:03:08.011Z,100790.88
2022-11-07T20:04:11.329Z,100790.11
2022-11-07T20:05:16.516Z,100792.34
2022-11-07T20:06:21.803Z,100793.27
2022-11-07T20:07:25.186Z,100791.48
2022-11-07T20:08:30.170Z,100800.08
2022-11-07T20:09:33.390Z,100799.28
2022-11-07T20:10:36.953Z,100801.31
